createdAt,value
2023-04-01T00:01:15.960Z,20.02
2023-04-01T00:03:43.076Z,20.02
2023-04-01T00:06:10.646Z,20.01
2023-04-01T00:08:37.222Z,20.02
2023-04-01T00:11:04.048Z,20.00
2023-04-01T00:13:30.838Z,19.99
2023-04-01T00:15:57.772Z,19.98
2023-04-01T00:18:26.552Z,19.97
2023-04-01T00:20:53.128Z,19.96
2023-04-01T00:23:19.931Z,19.95
2023-04-01T00:25:47.862Z,19.95
2023-04-01T00:28:16.036Z,19.95
2023-04-01T00:30:42.620Z,19.94
2023-04-01T00:33:09.293Z,19.93
2023-04-01T00:35:36.430Z,19.93
2023-04-01T00:38:06.423Z,19.91
2023-04-01T00:40:37.931Z,19.90
2023-04-01T00:43:05.041Z,19.91
2023-04-01T00:45:37.013Z,19.89
2023-04-01T00:48:07.310Z,19.89
2023-04-01T00:50:34.701Z,19.88
2023-04-01T00:53:02.635Z,19.87
2023-04-01T00:55:30.655Z,19.88
2023-04-01T00:57:57.992Z,19.87
2023-04-01T01:00:24.726Z,19.86
2023-04-01T01:02:51.376Z,19.86
2023-04-01T01:05:18.138Z,19.85
2023-04-01T01:07:57.034Z,19.84
2023-04-01T01:10:35.921Z,19.85
2023-04-01T01:13:27.013Z,19.86
2023-04-01T01:15:59.365Z,19.86
2023-04-01T01:18:40.353Z,19.86
2023-04-01T01:21:43.613Z,19.87
2023-04-01T01:24:29.131Z,19.87
2023-04-01T01:27:14.897Z,19.87
2023-04-01T01:29:43.234Z,19.87
2023-04-01T01:32:19.034Z,19.85
2023-04-01T01:34:45.902Z,19.87
2023-04-01T01:37:16.194Z,19.86
2023-04-01T01:39:44.036Z,19.87
2023-04-01T01:42:12.150Z,19.86
2023-04-01T01:44:38.762Z,19.86
2023-04-01T01:47:05.478Z,19.85
2023-04-01T01:49:32.795Z,19.86
2023-04-01T01:51:59.406Z,19.85
2023-04-01T01:54:25.991Z,19.85
2023-04-01T01:57:06.195Z,19.86
2023-04-01T01:59:32.926Z,19.85
2023-04-01T02:02:00.561Z,19.84
2023-04-01T02:04:28.075Z,19.83
2023-04-01T02:06:59.140Z,19.84
2023-04-01T02:09:25.720Z,19.82
2023-04-01T02:11:58.420Z,19.82
2023-04-01T02:14:26.579Z,19.83
2023-04-01T02:17:07.220Z,19.82
2023-04-01T02:19:36.170Z,19.81
2023-04-01T02:22:04.037Z,19.82
2023-04-01T02:24:31.884Z,19.81
2023-04-01T02:26:58.484Z,19.81
2023-04-01T02:29:26.394Z,19.80
2023-04-01T02:31:53.132Z,19.80
2023-04-01T02:34:20.953Z,19.79
2023-04-01T02:36:50.786Z,19.79
2023-04-01T02:39:17.522Z,19.79
2023-04-01T02:41:45.007Z,19.80
2023-04-01T02:44:14.684Z,19.79
2023-04-01T02:46:41.346Z,19.79
2023-04-01T02:49:08.076Z,19.79
2023-04-01T02:51:34.872Z,19.79
2023-04-01T02:54:01.582Z,19.79
2023-04-01T02:56:28.154Z,19.79
2023-04-01T02:58:55.969Z,19.77
2023-04-01T03:01:22.843Z,19.77
2023-04-01T03:03:49.471Z,19.77
2023-04-01T03:06:16.414Z,19.77
2023-04-01T03:08:43.185Z,19.76
2023-04-01T03:11:11.025Z,19.74
2023-04-01T03:13:37.694Z,19.74
2023-04-01T03:16:04.646Z,19.74
2023-04-01T03:18:31.271Z,19.73
2023-04-01T03:20:57.926Z,19.73
2023-04-01T03:23:25.343Z,19.72
2023-04-01T03:25:52.060Z,19.71
2023-04-01T03:28:18.740Z,19.71
2023-04-01T03:30:45.437Z,19.71
2023-04-01T03:33:12.810Z,19.71
2023-04-01T03:35:39.437Z,19.69
2023-04-01T03:38:06.112Z,19.69
2023-04-01T03:40:34.047Z,19.68
2023-04-01T03:43:00.895Z,19.68
2023-04-01T03:45:27.636Z,19.67
2023-04-01T03:47:54.786Z,19.67
2023-04-01T03:50:21.402Z,19.66
2023-04-01T03:52:48.043Z,19.64
2023-04-01T03:55:14.631Z,19.66
2023-04-01T03:57:41.306Z,19.65
2023-04-01T04:00:09.944Z,19.65
2023-04-01T04:02:36.731Z,19.65
2023-04-01T04:05:03.527Z,19.64
2023-04-01T04:07:30.178Z,19.63
2023-04-01T04:09:56.780Z,19.62
2023-04-01T04:12:23.402Z,19.63
2023-04-01T04:14:49.971Z,19.63
2023-04-01T04:17:17.404Z,19.61
2023-04-01T04:19:44.099Z,19.61
2023-04-01T04:22:10.784Z,19.61
2023-04-01T04:24:37.584Z,19.59
2023-04-01T04:27:04.497Z,19.60
2023-04-01T04:29:31.138Z,19.60
2023-04-01T04:31:57.813Z,19.59
2023-04-01T04:34:24.643Z,19.59
2023-04-01T04:36:51.252Z,19.59
2023-04-01T04:39:18.200Z,19.59
2023-04-01T04:41:44.827Z,19.58
2023-04-01T04:44:11.521Z,19.58
2023-04-01T04:46:40.302Z,19.59
2023-04-01T04:49:07.693Z,19.58
2023-04-01T04:51:37.007Z,19.56
2023-04-01T04:54:04.277Z,19.55
2023-04-01T04:56:31.781Z,19.56
2023-04-01T04:58:58.653Z,19.57
2023-04-01T05:01:25.669Z,19.61
2023-04-01T05:03:52.688Z,19.73
2023-04-01T05:06:20.988Z,19.88
2023-04-01T05:08:48.880Z,20.05
2023-04-01T05:11:19.314Z,20.19
2023-04-01T05:13:45.979Z,20.30
2023-04-01T05:16:18.036Z,20.43
2023-04-01T05:18:44.826Z,20.64
2023-04-01T05:21:12.110Z,20.92
2023-04-01T05:23:38.730Z,21.12
2023-04-01T05:26:12.867Z,21.29
2023-04-01T05:28:39.521Z,21.42
2023-04-01T05:31:06.421Z,21.52
2023-04-01T05:33:33.226Z,21.61
2023-04-01T05:36:16.135Z,21.68
2023-04-01T05:38:44.124Z,21.74
2023-04-01T05:41:10.921Z,21.81
2023-04-01T05:43:37.981Z,21.86
2023-04-01T05:46:04.590Z,21.92
2023-04-01T05:48:31.210Z,21.96
2023-04-01T05:50:57.881Z,22.01
2023-04-01T05:53:24.500Z,22.06
2023-04-01T05:55:51.126Z,22.10
2023-04-01T05:58:17.694Z,22.14
2023-04-01T06:00:44.475Z,22.18
2023-04-01T06:03:11.226Z,22.21
2023-04-01T06:05:43.531Z,22.24
2023-04-01T06:08:17.629Z,22.28
2023-04-01T06:10:51.922Z,22.31
2023-04-01T06:13:34.110Z,22.36
2023-04-01T06:16:22.629Z,22.39
2023-04-01T06:19:00.353Z,22.42
2023-04-01T06:21:52.678Z,22.45
2023-04-01T06:24:37.532Z,22.48
2023-04-01T06:27:19.763Z,22.49
2023-04-01T06:29:51.805Z,22.51
2023-04-01T06:32:36.940Z,22.52
2023-04-01T06:35:37.663Z,22.53
2023-04-01T06:38:26.085Z,22.54
2023-04-01T06:41:16.025Z,22.56
2023-04-01T06:44:01.038Z,22.57
2023-04-01T06:46:39.208Z,22.59
2023-04-01T06:49:15.114Z,22.58
2023-04-01T06:51:44.539Z,22.61
2023-04-01T06:54:17.931Z,22.63
2023-04-01T06:56:47.454Z,22.65
2023-04-01T06:59:23.285Z,22.66
2023-04-01T07:01:55.102Z,22.68
2023-04-01T07:04:22.099Z,22.69
2023-04-01T07:06:57.173Z,22.71
2023-04-01T07:09:26.736Z,22.71
2023-04-01T07:11:54.713Z,22.73
2023-04-01T07:14:27.111Z,22.76
2023-04-01T07:17:07.722Z,22.79
2023-04-01T07:19:42.341Z,22.79
2023-04-01T07:22:21.194Z,22.81
2023-04-01T07:24:47.796Z,22.83
2023-04-01T07:27:14.601Z,22.84
2023-04-01T07:29:41.454Z,22.86
2023-04-01T07:32:26.926Z,22.89
2023-04-01T07:35:23.852Z,22.91
2023-04-01T07:38:22.081Z,22.94
2023-04-01T07:41:00.867Z,22.97
2023-04-01T07:43:37.952Z,23.00
2023-04-01T07:46:27.599Z,23.03
2023-04-01T07:48:56.987Z,23.06
2023-04-01T07:51:41.710Z,23.07
2023-04-01T07:54:30.990Z,23.09
2023-04-01T07:57:13.379Z,23.10
2023-04-01T07:59:43.000Z,23.12
2023-04-01T08:02:34.439Z,23.15
2023-04-01T08:05:03.916Z,23.16
2023-04-01T08:08:01.730Z,23.18
2023-04-01T08:10:35.935Z,23.22
2023-04-01T08:13:17.114Z,23.25
2023-04-01T08:16:04.498Z,23.27
2023-04-01T08:18:47.856Z,23.29
2023-04-01T08:21:29.759Z,23.32
2023-04-01T08:24:00.349Z,23.34
2023-04-01T08:26:37.235Z,23.35
2023-04-01T08:29:11.700Z,23.35
2023-04-01T08:31:44.461Z,23.37
2023-04-01T08:34:20.620Z,23.39
2023-04-01T08:36:51.180Z,23.41
2023-04-01T08:39:33.042Z,23.41
2023-04-01T08:42:18.602Z,23.41
2023-04-01T08:45:01.124Z,23.44
2023-04-01T08:47:51.477Z,23.46
2023-04-01T08:50:25.350Z,23.48
2023-04-01T08:53:07.256Z,23.49
2023-04-01T08:55:45.964Z,23.50
2023-04-01T08:58:34.840Z,23.52
2023-04-01T09:01:15.461Z,23.55
2023-04-01T09:03:48.558Z,23.55
2023-04-01T09:06:26.095Z,23.54
2023-04-01T09:08:55.330Z,23.50
2023-04-01T09:11:59.155Z,23.42
2023-04-01T09:14:34.848Z,23.36
2023-04-01T09:17:22.709Z,23.31
2023-04-01T09:20:06.758Z,23.26
2023-04-01T09:22:52.608Z,23.21
2023-04-01T09:25:50.610Z,23.16
2023-04-01T09:28:29.008Z,23.12
2023-04-01T09:31:37.800Z,23.07
2023-04-01T09:34:13.573Z,23.00
2023-04-01T09:36:45.046Z,22.93
2023-04-01T09:39:24.443Z,22.87
2023-04-01T09:42:18.683Z,22.82
2023-04-01T09:45:01.656Z,22.77
2023-04-01T09:48:01.725Z,22.70
2023-04-01T09:50:33.589Z,22.66
2023-04-01T09:53:04.955Z,22.61
2023-04-01T09:56:10.433Z,22.57
2023-04-01T09:59:00.538Z,22.52
2023-04-01T10:02:04.601Z,22.49
2023-04-01T10:05:08.689Z,22.45
2023-04-01T10:07:44.126Z,22.41
2023-04-01T10:10:31.856Z,22.37
2023-04-01T10:13:13.607Z,22.33
2023-04-01T10:15:58.415Z,22.29
2023-04-01T10:18:53.996Z,22.24
2023-04-01T10:21:45.536Z,22.21
2023-04-01T10:24:27.811Z,22.20
2023-04-01T10:27:04.524Z,22.16
2023-04-01T10:29:56.077Z,22.13
2023-04-01T10:32:36.415Z,22.11
2023-04-01T10:35:48.229Z,22.09
2023-04-01T10:38:28.171Z,22.05
2023-04-01T10:41:19.234Z,22.02
2023-04-01T10:43:51.762Z,21.97
2023-04-01T10:46:27.292Z,21.95
2023-04-01T10:48:59.791Z,21.92
2023-04-01T10:51:51.049Z,21.88
2023-04-01T10:54:32.848Z,21.86
2023-04-01T10:57:34.990Z,21.84
2023-04-01T11:00:20.854Z,21.83
2023-04-01T11:03:19.559Z,21.81
2023-04-01T11:05:52.265Z,21.79
2023-04-01T11:08:31.084Z,21.78
2023-04-01T11:11:00.219Z,21.75
2023-04-01T11:13:45.936Z,21.73
2023-04-01T11:16:36.998Z,21.70
2023-04-01T11:19:21.481Z,21.68
2023-04-01T11:22:15.500Z,21.68
2023-04-01T11:25:01.314Z,21.68
2023-04-01T11:27:49.742Z,21.65
2023-04-01T11:30:47.398Z,21.65
2023-04-01T11:33:27.537Z,21.65
2023-04-01T11:36:16.364Z,21.61
2023-04-01T11:39:11.521Z,21.60
2023-04-01T11:41:49.426Z,21.58
2023-04-01T11:44:29.876Z,21.56
2023-04-01T11:47:05.082Z,21.56
2023-04-01T11:50:10.149Z,21.53
2023-04-01T11:53:02.045Z,21.51
2023-04-01T11:55:50.564Z,21.48
2023-04-01T11:58:36.377Z,21.45
2023-04-01T12:01:12.242Z,21.45
2023-04-01T12:03:43.467Z,21.42
2023-04-01T12:06:32.039Z,21.41
2023-04-01T12:09:46.778Z,21.39
2023-04-01T12:12:19.317Z,21.38
2023-04-01T12:15:12.010Z,21.37
2023-04-01T12:17:52.325Z,21.36
2023-04-01T12:20:25.055Z,21.35
2023-04-01T12:23:24.117Z,21.33
2023-04-01T12:26:05.654Z,21.32
2023-04-01T12:28:50.516Z,21.31
2023-04-01T12:31:28.489Z,21.31
2023-04-01T12:33:58.099Z,21.30
2023-04-01T12:36:51.386Z,21.29
2023-04-01T12:39:51.889Z,21.30
2023-04-01T12:42:40.212Z,21.28
2023-04-01T12:45:24.674Z,21.28
2023-04-01T12:48:00.523Z,21.26
2023-04-01T12:50:32.780Z,21.25
2023-04-01T12:53:11.448Z,21.25
2023-04-01T12:55:53.476Z,21.26
2023-04-01T12:58:42.047Z,21.25
2023-04-01T13:01:18.968Z,21.25
2023-04-01T13:04:06.850Z,21.22
2023-04-01T13:06:37.840Z,21.24
2023-04-01T13:09:07.529Z,21.23
2023-04-01T13:11:48.951Z,21.22
2023-04-01T13:14:29.100Z,21.21
2023-04-01T13:16:58.437Z,21.20
2023-04-01T13:20:01.946Z,21.20
2023-04-01T13:22:58.346Z,21.20
2023-04-01T13:25:31.190Z,21.19
2023-04-01T13:28:01.329Z,21.19
2023-04-01T13:30:32.072Z,21.18
2023-04-01T13:33:17.061Z,21.18
2023-04-01T13:36:04.457Z,21.17
2023-04-01T13:38:43.170Z,21.17
2023-04-01T13:41:31.477Z,21.16
2023-04-01T13:44:17.235Z,21.15
2023-04-01T13:47:04.081Z,21.15
2023-04-01T13:49:53.732Z,21.14
2023-04-01T13:52:58.032Z,21.14
2023-04-01T13:55:36.898Z,21.13
2023-04-01T13:58:13.658Z,21.11
2023-04-01T14:01:03.907Z,21.11
2023-04-01T14:03:52.029Z,21.10
2023-04-01T14:06:24.524Z,21.09
2023-04-01T14:08:57.211Z,21.09
2023-04-01T14:11:23.708Z,21.07
2023-04-01T14:13:50.149Z,21.05
2023-04-01T14:16:29.093Z,21.06
2023-04-01T14:19:07.609Z,21.05
2023-04-01T14:21:52.883Z,21.02
2023-04-01T14:24:24.825Z,21.02
2023-04-01T14:27:12.792Z,21.00
2023-04-01T14:29:54.676Z,21.00
2023-04-01T14:32:35.080Z,21.00
2023-04-01T14:35:23.500Z,20.97
2023-04-01T14:38:04.137Z,20.97
2023-04-01T14:40:52.466Z,20.95
2023-04-01T14:43:23.668Z,20.95
2023-04-01T14:46:35.374Z,20.93
2023-04-01T14:49:32.921Z,20.93
2023-04-01T14:52:25.327Z,20.92
2023-04-01T14:54:51.989Z,20.91
2023-04-01T14:57:32.011Z,20.90
2023-04-01T15:00:14.162Z,20.90
2023-04-01T15:03:00.926Z,20.91
2023-04-01T15:05:46.668Z,20.90
2023-04-01T15:08:17.419Z,20.89
2023-04-01T15:10:56.087Z,20.87
2023-04-01T15:13:45.700Z,20.86
2023-04-01T15:16:27.308Z,20.87
2023-04-01T15:19:10.305Z,20.86
2023-04-01T15:21:52.466Z,20.86
2023-04-01T15:24:55.688Z,20.84
2023-04-01T15:27:43.181Z,20.84
2023-04-01T15:30:35.640Z,20.83
2023-04-01T15:33:31.361Z,20.81
2023-04-01T15:36:35.755Z,20.83
2023-04-01T15:39:20.644Z,20.82
2023-04-01T15:42:21.574Z,20.81
2023-04-01T15:44:54.105Z,20.81
2023-04-01T15:47:26.917Z,20.81
2023-04-01T15:50:18.645Z,20.78
2023-04-01T15:53:10.966Z,20.79
2023-04-01T15:55:46.360Z,20.78
2023-04-01T15:58:25.408Z,20.77
2023-04-01T16:00:58.875Z,20.77
2023-04-01T16:03:31.744Z,20.77
2023-04-01T16:06:07.661Z,20.76
2023-04-01T16:08:59.683Z,20.76
2023-04-01T16:11:44.156Z,20.76
2023-04-01T16:14:30.993Z,20.76
2023-04-01T16:17:12.517Z,20.75
2023-04-01T16:19:57.281Z,20.73
2023-04-01T16:22:45.747Z,20.73
2023-04-01T16:25:18.796Z,20.72
2023-04-01T16:28:17.542Z,20.71
2023-04-01T16:30:49.270Z,20.71
2023-04-01T16:33:46.840Z,20.70
2023-04-01T16:36:31.834Z,20.69
2023-04-01T16:39:47.599Z,20.67
2023-04-01T16:42:39.498Z,20.67
2023-04-01T16:45:08.932Z,20.67
2023-04-01T16:47:55.687Z,20.66
2023-04-01T16:50:24.445Z,20.64
2023-04-01T16:53:02.046Z,20.63
2023-04-01T16:56:02.438Z,20.64
2023-04-01T16:58:33.800Z,20.63
2023-04-01T17:01:07.092Z,20.62
2023-04-01T17:03:39.296Z,20.61
2023-04-01T17:06:41.440Z,20.60
2023-04-01T17:09:16.624Z,20.59
2023-04-01T17:12:01.643Z,20.58
2023-04-01T17:14:30.321Z,20.58
2023-04-01T17:17:11.357Z,20.57
2023-04-01T17:20:04.568Z,20.56
2023-04-01T17:22:35.466Z,20.54
2023-04-01T17:25:17.565Z,20.54
2023-04-01T17:28:10.897Z,20.54
2023-04-01T17:30:47.038Z,20.52
2023-04-01T17:33:20.600Z,20.52
2023-04-01T17:36:08.395Z,20.50
2023-04-01T17:39:12.795Z,20.48
2023-04-01T17:41:48.437Z,20.48
2023-04-01T17:44:27.173Z,20.48
2023-04-01T17:46:59.716Z,20.46
2023-04-01T17:49:42.445Z,20.47
2023-04-01T17:52:31.516Z,20.45
2023-04-01T17:55:16.884Z,20.43
2023-04-01T17:57:53.261Z,20.42
2023-04-01T18:00:50.635Z,20.42
2023-04-01T18:03:57.553Z,20.41
2023-04-01T18:06:46.098Z,20.41
2023-04-01T18:09:25.146Z,20.40
2023-04-01T18:11:57.585Z,20.39
2023-04-01T18:14:39.425Z,20.38
2023-04-01T18:17:26.349Z,20.38
2023-04-01T18:20:27.789Z,20.37
2023-04-01T18:23:36.201Z,20.37
2023-04-01T18:26:13.498Z,20.36
2023-04-01T18:28:45.225Z,20.34
2023-04-01T18:31:41.119Z,20.35
2023-04-01T18:34:11.575Z,20.33
2023-04-01T18:36:45.908Z,20.33
2023-04-01T18:39:20.123Z,20.33
2023-04-01T18:42:00.428Z,20.32
2023-04-01T18:44:48.767Z,20.32
2023-04-01T18:47:23.473Z,20.32
2023-04-01T18:50:22.318Z,20.31
2023-04-01T18:52:51.322Z,20.32
2023-04-01T18:55:36.280Z,20.30
2023-04-01T18:58:20.003Z,20.31
2023-04-01T19:01:02.328Z,20.29
2023-04-01T19:03:41.363Z,20.29
2023-04-01T19:06:21.451Z,20.28
2023-04-01T19:08:48.210Z,20.29
2023-04-01T19:11:20.877Z,20.27
2023-04-01T19:14:17.142Z,20.26
2023-04-01T19:17:03.248Z,20.26
2023-04-01T19:19:53.878Z,20.25
2023-04-01T19:23:03.505Z,20.25
2023-04-01T19:25:51.103Z,20.24
2023-04-01T19:28:22.068Z,20.24
2023-04-01T19:31:02.898Z,20.23
2023-04-01T19:33:32.771Z,20.21
2023-04-01T19:36:21.308Z,20.20
2023-04-01T19:38:56.364Z,20.21
2023-04-01T19:41:26.377Z,20.20
2023-04-01T19:44:00.503Z,20.20
2023-04-01T19:46:30.671Z,20.19
2023-04-01T19:49:25.607Z,20.19
2023-04-01T19:51:52.540Z,20.18
2023-04-01T19:55:03.918Z,20.17
2023-04-01T19:58:02.005Z,20.16
2023-04-01T20:00:38.897Z,20.16
2023-04-01T20:03:30.248Z,20.16
2023-04-01T20:05:59.480Z,20.14
2023-04-01T20:08:35.054Z,20.13
2023-04-01T20:11:07.433Z,20.14
2023-04-01T20:13:37.313Z,20.12
2023-04-01T20:16:06.156Z,20.12
2023-04-01T20:18:41.107Z,20.11
2023-04-01T20:21:19.385Z,20.11
2023-04-01T20:23:58.031Z,20.11
2023-04-01T20:26:27.781Z,20.11
2023-04-01T20:29:31.708Z,20.08
2023-04-01T20:32:24.346Z,20.09
2023-04-01T20:35:06.983Z,20.08
2023-04-01T20:37:48.293Z,20.07
2023-04-01T20:40:34.494Z,20.08
2023-04-01T20:43:34.811Z,20.07
2023-04-01T20:46:40.954Z,20.05
2023-04-01T20:49:40.174Z,20.03
2023-04-01T20:52:15.702Z,20.04
2023-04-01T20:55:04.129Z,20.03
2023-04-01T20:57:39.588Z,20.02
2023-04-01T21:01:03.141Z,20.02
2023-04-01T21:04:07.790Z,20.02
2023-04-01T21:06:54.603Z,20.01
2023-04-01T21:09:36.321Z,19.99
2023-04-01T21:12:15.370Z,19.99
2023-04-01T21:15:19.827Z,19.99
2023-04-01T21:18:15.578Z,19.99
2023-04-01T21:21:13.222Z,19.99
2023-04-01T21:24:01.152Z,19.98
2023-04-01T21:27:12.708Z,19.96
2023-04-01T21:29:39.173Z,19.96
2023-04-01T21:32:21.126Z,19.96
2023-04-01T21:34:56.475Z,19.95
2023-04-01T21:37:41.822Z,19.95
2023-04-01T21:40:33.519Z,19.94
2023-04-01T21:43:25.828Z,19.95
2023-04-01T21:45:55.316Z,19.93
2023-04-01T21:48:35.868Z,19.93
2023-04-01T21:51:47.033Z,19.92
2023-04-01T21:54:34.704Z,19.93
2023-04-01T21:57:23.045Z,19.92
2023-04-01T22:00:12.466Z,19.92
2023-04-01T22:03:00.812Z,19.92
2023-04-01T22:05:46.008Z,19.90
2023-04-01T22:08:53.127Z,19.89
2023-04-01T22:11:33.578Z,19.88
2023-04-01T22:14:04.301Z,19.88
2023-04-01T22:16:38.328Z,19.88
2023-04-01T22:19:35.958Z,19.88
2023-04-01T22:22:09.155Z,19.87
2023-04-01T22:24:54.997Z,19.88
2023-04-01T22:27:42.740Z,19.86
2023-04-01T22:30:12.479Z,19.88
2023-04-01T22:32:43.787Z,19.86
2023-04-01T22:35:25.948Z,19.86
2023-04-01T22:37:58.515Z,19.85
2023-04-01T22:40:34.800Z,19.85
2023-04-01T22:43:10.124Z,19.84
2023-04-01T22:46:12.225Z,19.84
2023-04-01T22:48:48.663Z,19.84
2023-04-01T22:51:27.489Z,19.84
2023-04-01T22:54:17.368Z,19.83
2023-04-01T22:56:57.663Z,19.83
2023-04-01T22:59:40.707Z,19.82
2023-04-01T23:02:14.950Z,19.81
2023-04-01T23:04:43.588Z,19.81
2023-04-01T23:07:33.246Z,19.80
2023-04-01T23:09:59.865Z,19.81
2023-04-01T23:12:26.711Z,19.79
2023-04-01T23:14:57.888Z,19.79
2023-04-01T23:17:43.667Z,19.80
2023-04-01T23:20:51.912Z,19.78
2023-04-01T23:23:30.848Z,19.78
2023-04-01T23:26:08.969Z,19.78
2023-04-01T23:28:51.122Z,19.79
2023-04-01T23:31:39.634Z,19.78
2023-04-01T23:34:12.272Z,19.76
2023-04-01T23:36:41.255Z,19.77
2023-04-01T23:39:32.592Z,19.76
2023-04-01T23:42:18.902Z,19.76
2023-04-01T23:44:45.541Z,19.75
2023-04-01T23:47:19.462Z,19.74
2023-04-01T23:49:49.103Z,19.75
2023-04-01T23:52:30.935Z,19.74
2023-04-01T23:55:02.710Z,19.73
2023-04-01T23:57:33.988Z,19.71
